Grand Island, Florida
Current Conditions -  °F | °C
As of 8:53 PM on Monday 24 Nov 2014 (Local Time) from KLEE Reporting Station
Clear Clear  
Wind Chill: 72°   Ceiling: Unl
Heat Index: 72°   Visibility: 10mi
Dew Point: 68°   Wind: 5mph
Humidity: 87%   Direction: 180°S
Pressure: 30"   Gusts: NA
Location:  28.88°N, 81.73°W
Report Text: KLEE 250153Z AUTO 18004KT 10SM CLR 22/20 A3000 RMK AO2 SLP158 T02220200
Loading
Personal Weather Stations






























Interactive Weather Map New forecast layout! Learn more

10-Day Weather Forecast

Advertisements
Track Severe Weather on mobile